createdAt,value
2018-02-11T00:00:45.460Z,61.60
2018-02-11T00:01:46.567Z,61.70
2018-02-11T00:02:47.651Z,61.70
2018-02-11T00:03:49.451Z,62.00
2018-02-11T00:04:50.531Z,62.00
2018-02-11T00:05:51.611Z,62.00
2018-02-11T00:06:52.687Z,62.10
2018-02-11T00:07:53.808Z,62.80
2018-02-11T00:08:54.908Z,62.20
2018-02-11T00:09:56.021Z,62.30
2018-02-11T00:10:57.833Z,62.90
2018-02-11T00:11:59.664Z,62.70
2018-02-11T00:13:00.735Z,62.70
2018-02-11T00:14:01.830Z,63.00
2018-02-11T00:15:02.914Z,63.30
2018-02-11T00:16:03.995Z,63.30
2018-02-11T00:17:05.079Z,63.30
2018-02-11T00:18:06.164Z,63.40
2018-02-11T00:19:07.274Z,63.40
2018-02-11T00:20:08.318Z,63.40
2018-02-11T00:21:09.374Z,63.30
2018-02-11T00:22:11.198Z,63.70
2018-02-11T00:23:12.271Z,63.60
2018-02-11T00:24:14.090Z,63.70
2018-02-11T00:25:15.162Z,63.70
2018-02-11T00:26:16.232Z,63.80
2018-02-11T00:27:17.346Z,63.70
2018-02-11T00:28:18.403Z,63.70
2018-02-11T00:29:19.470Z,63.80
2018-02-11T00:30:21.307Z,63.60
2018-02-11T00:31:22.397Z,63.60
2018-02-11T00:32:23.495Z,63.40
2018-02-11T00:33:25.298Z,63.50
2018-02-11T00:34:26.372Z,63.50
2018-02-11T00:35:27.435Z,63.40
2018-02-11T00:36:28.516Z,63.40
2018-02-11T00:37:35.616Z,63.40
2018-02-11T00:38:36.694Z,63.40
2018-02-11T00:39:37.773Z,63.40
2018-02-11T00:40:39.583Z,63.50
2018-02-11T00:41:40.645Z,63.40
2018-02-11T00:42:42.459Z,63.70
2018-02-11T00:43:43.530Z,63.60
2018-02-11T00:44:45.351Z,63.80
2018-02-11T00:45:46.426Z,63.70
2018-02-11T00:46:48.240Z,63.80
2018-02-11T00:47:49.323Z,63.70
2018-02-11T00:48:50.403Z,63.70
2018-02-11T00:49:51.467Z,63.80
2018-02-11T00:50:52.554Z,63.90
2018-02-11T00:51:53.611Z,63.80
2018-02-11T00:52:56.287Z,63.90
2018-02-11T00:53:57.423Z,63.80
2018-02-11T00:54:59.424Z,63.80
2018-02-11T00:56:00.598Z,63.80
2018-02-11T00:57:01.679Z,63.70
2018-02-11T00:58:02.755Z,63.60
2018-02-11T00:59:03.814Z,63.70
2018-02-11T01:00:04.910Z,63.60
2018-02-11T01:01:06.011Z,63.80
2018-02-11T01:02:07.160Z,63.80
2018-02-11T01:03:08.246Z,64.00
2018-02-11T01:04:09.334Z,64.00
2018-02-11T01:05:10.430Z,63.80
2018-02-11T01:06:11.599Z,64.00
2018-02-11T01:07:12.742Z,64.10
2018-02-11T01:08:13.862Z,63.90
2018-02-11T01:09:14.976Z,63.20
2018-02-11T01:10:16.070Z,63.30
2018-02-11T01:11:17.882Z,63.30
2018-02-11T01:12:18.968Z,63.30
2018-02-11T01:13:20.085Z,63.30
2018-02-11T01:14:21.903Z,62.90
2018-02-11T01:15:22.995Z,62.90
2018-02-11T01:16:24.092Z,63.20
2018-02-11T01:17:25.158Z,63.00
2018-02-11T01:18:26.274Z,62.90
2018-02-11T01:19:27.362Z,63.30
2018-02-11T01:20:28.435Z,63.30
2018-02-11T01:21:30.251Z,63.30
2018-02-11T01:22:31.315Z,63.20
2018-02-11T01:23:32.378Z,63.00
2018-02-11T01:24:33.461Z,62.90
2018-02-11T01:25:34.536Z,63.60
2018-02-11T01:26:35.627Z,62.70
2018-02-11T01:27:36.735Z,62.80
2018-02-11T01:28:37.827Z,62.90
2018-02-11T01:29:38.899Z,63.30
2018-02-11T01:30:39.975Z,63.20
2018-02-11T01:31:41.819Z,63.70
2018-02-11T01:32:42.895Z,63.70
2018-02-11T01:33:43.995Z,63.70
2018-02-11T01:34:45.075Z,63.70
2018-02-11T01:35:46.146Z,64.00
2018-02-11T01:36:47.956Z,64.00
2018-02-11T01:37:49.035Z,64.00
2018-02-11T01:38:50.116Z,64.00
2018-02-11T01:39:51.219Z,64.10
2018-02-11T01:40:52.283Z,64.10
2018-02-11T01:41:53.363Z,63.90
2018-02-11T01:42:55.188Z,64.10
2018-02-11T01:43:56.247Z,64.00
2018-02-11T01:44:58.042Z,64.00
2018-02-11T01:45:59.131Z,64.00
2018-02-11T01:47:00.950Z,64.00
2018-02-11T01:48:02.008Z,64.00
2018-02-11T01:49:03.819Z,63.80
2018-02-11T01:50:13.967Z,63.80
2018-02-11T01:51:15.028Z,63.70
2018-02-11T01:52:16.080Z,63.70
2018-02-11T01:53:17.169Z,63.70
2018-02-11T01:54:19.066Z,63.40
2018-02-11T01:55:20.138Z,63.40
2018-02-11T01:56:21.207Z,63.30
2018-02-11T01:57:23.033Z,63.30
2018-02-11T01:58:24.102Z,63.30
2018-02-11T01:59:25.958Z,63.30
2018-02-11T02:00:27.023Z,63.30
2018-02-11T02:01:28.095Z,63.30
2018-02-11T02:02:29.187Z,63.30
2018-02-11T02:03:30.271Z,63.30
2018-02-11T02:04:31.350Z,63.30
2018-02-11T02:05:32.454Z,63.30
2018-02-11T02:06:33.533Z,63.30
2018-02-11T02:07:34.623Z,63.30
2018-02-11T02:08:41.761Z,63.20
2018-02-11T02:09:45.721Z,63.50
2018-02-11T02:10:46.787Z,63.50
2018-02-11T02:11:47.843Z,63.40
2018-02-11T02:12:48.957Z,63.20
2018-02-11T02:13:50.055Z,63.20
2018-02-11T02:14:51.124Z,63.40
2018-02-11T02:15:52.952Z,64.30
2018-02-11T02:16:54.044Z,63.50
2018-02-11T02:17:55.116Z,63.60
2018-02-11T02:18:56.207Z,63.50
2018-02-11T02:19:57.295Z,63.40
2018-02-11T02:20:58.378Z,63.20
2018-02-11T02:21:59.446Z,63.40
2018-02-11T02:23:00.501Z,63.30
2018-02-11T02:24:02.326Z,63.60
2018-02-11T02:25:03.410Z,63.60
2018-02-11T02:26:04.481Z,63.60
2018-02-11T02:27:05.567Z,63.70
2018-02-11T02:28:07.377Z,63.90
2018-02-11T02:29:08.463Z,63.80
2018-02-11T02:30:09.540Z,64.00
2018-02-11T02:31:10.619Z,64.20
2018-02-11T02:32:11.693Z,64.20
2018-02-11T02:33:12.779Z,64.10
2018-02-11T02:34:14.582Z,64.30
2018-02-11T02:35:15.719Z,64.30
2018-02-11T02:36:16.787Z,64.40
2018-02-11T02:37:17.870Z,64.40
2018-02-11T02:38:18.936Z,64.30
2018-02-11T02:39:19.985Z,64.50
2018-02-11T02:40:21.087Z,64.40
2018-02-11T02:41:22.166Z,64.50
2018-02-11T02:42:23.227Z,64.50
2018-02-11T02:43:24.287Z,64.40
2018-02-11T02:44:25.370Z,64.30
2018-02-11T02:45:26.442Z,64.30
2018-02-11T02:46:27.500Z,64.10
2018-02-11T02:47:28.610Z,64.10
2018-02-11T02:48:29.682Z,63.90
2018-02-11T02:49:30.766Z,64.10
2018-02-11T02:50:31.847Z,64.00
2018-02-11T02:51:32.924Z,63.80
2018-02-11T02:52:33.998Z,63.80
2018-02-11T02:53:35.096Z,63.70
2018-02-11T02:54:36.176Z,63.80
2018-02-11T02:55:38.013Z,63.90
2018-02-11T02:56:39.827Z,63.90
2018-02-11T02:57:40.884Z,64.60
2018-02-11T02:58:42.717Z,63.90
2018-02-11T02:59:43.795Z,63.90
2018-02-11T03:00:44.876Z,63.80
2018-02-11T03:01:45.954Z,63.80
2018-02-11T03:02:47.055Z,63.90
2018-02-11T03:03:48.135Z,63.90
2018-02-11T03:04:49.207Z,63.90
2018-02-11T03:05:50.314Z,63.80
2018-02-11T03:06:51.378Z,63.80
2018-02-11T03:07:52.459Z,63.70
2018-02-11T03:08:54.290Z,63.80
2018-02-11T03:09:55.434Z,63.80
2018-02-11T03:10:56.514Z,63.70
2018-02-11T03:11:57.591Z,63.80
2018-02-11T03:12:58.707Z,63.70
2018-02-11T03:14:00.512Z,63.30
2018-02-11T03:15:01.608Z,63.30
2018-02-11T03:16:02.713Z,63.10
2018-02-11T03:17:04.539Z,63.30
2018-02-11T03:18:05.611Z,63.20
2018-02-11T03:19:06.692Z,63.30
2018-02-11T03:20:07.774Z,63.30
2018-02-11T03:21:09.612Z,63.10
2018-02-11T03:22:10.693Z,63.10
2018-02-11T03:23:11.795Z,63.10
2018-02-11T03:24:13.595Z,63.10
2018-02-11T03:25:14.679Z,63.00
2018-02-11T03:26:15.764Z,63.00
2018-02-11T03:27:16.847Z,62.90
2018-02-11T03:28:17.927Z,62.70
2018-02-11T03:29:19.011Z,62.80
2018-02-11T03:30:20.120Z,62.60
2018-02-11T03:31:21.219Z,62.70
2018-02-11T03:32:22.308Z,62.80
2018-02-11T03:33:23.395Z,62.70
2018-02-11T03:34:24.449Z,62.80
2018-02-11T03:35:26.267Z,62.80
2018-02-11T03:36:27.350Z,62.80
2018-02-11T03:37:29.158Z,62.90
2018-02-11T03:38:30.251Z,62.80
2018-02-11T03:39:31.314Z,62.70
2018-02-11T03:40:32.376Z,62.40
2018-02-11T03:41:34.247Z,62.60
2018-02-11T03:42:36.060Z,62.60
2018-02-11T03:43:37.154Z,62.60
2018-02-11T03:44:38.211Z,62.60
2018-02-11T03:45:39.295Z,62.60
2018-02-11T03:46:40.367Z,62.00
2018-02-11T03:47:41.446Z,61.80
2018-02-11T03:48:42.536Z,61.70
2018-02-11T03:49:43.606Z,61.70
2018-02-11T03:50:45.430Z,61.40
2018-02-11T03:51:46.519Z,61.40
2018-02-11T03:52:47.583Z,61.50
2018-02-11T03:53:48.647Z,61.40
2018-02-11T03:54:49.724Z,61.30
2018-02-11T03:55:50.787Z,61.60
2018-02-11T03:56:51.862Z,61.70
2018-02-11T03:57:53.671Z,61.50
2018-02-11T03:58:54.750Z,61.40
2018-02-11T03:59:55.808Z,61.40
2018-02-11T04:00:57.611Z,61.10
2018-02-11T04:01:59.411Z,61.00
2018-02-11T04:03:00.470Z,60.90
2018-02-11T04:04:01.542Z,61.00
2018-02-11T04:05:02.622Z,61.20
2018-02-11T04:06:03.683Z,61.20
2018-02-11T04:07:05.532Z,62.00
2018-02-11T04:08:06.622Z,61.20
2018-02-11T04:09:07.717Z,61.10
2018-02-11T04:10:08.778Z,61.20
2018-02-11T04:11:09.855Z,61.10
2018-02-11T04:12:10.919Z,61.00
2018-02-11T04:13:11.996Z,61.10
2018-02-11T04:14:13.055Z,60.60
2018-02-11T04:15:14.883Z,60.20
2018-02-11T04:16:15.938Z,60.20
2018-02-11T04:17:17.746Z,60.20
2018-02-11T04:18:18.799Z,60.20
2018-02-11T04:19:19.864Z,60.10
2018-02-11T04:20:20.979Z,59.80
2018-02-11T04:21:22.048Z,59.60
2018-02-11T04:22:23.127Z,59.30
2018-02-11T04:23:24.195Z,59.50
2018-02-11T04:24:25.282Z,59.40
2018-02-11T04:25:26.375Z,58.70
2018-02-11T04:26:27.434Z,58.60
2018-02-11T04:27:28.514Z,58.70
2018-02-11T04:28:30.361Z,59.70
2018-02-11T04:29:32.183Z,58.90
2018-02-11T04:30:33.258Z,58.70
2018-02-11T04:31:35.067Z,59.00
2018-02-11T04:32:36.138Z,58.90
2018-02-11T04:33:37.954Z,58.60
2018-02-11T04:34:39.019Z,58.70
2018-02-11T04:35:40.830Z,58.80
2018-02-11T04:36:41.894Z,58.70
2018-02-11T04:37:42.992Z,58.70
2018-02-11T04:38:44.059Z,58.70
2018-02-11T04:39:45.150Z,58.70
2018-02-11T04:40:46.228Z,58.70
2018-02-11T04:41:48.035Z,58.60
2018-02-11T04:42:49.119Z,58.70
2018-02-11T04:43:50.182Z,58.70
2018-02-11T04:44:51.239Z,58.70
2018-02-11T04:45:52.303Z,58.10
2018-02-11T04:46:53.379Z,58.10
2018-02-11T04:47:54.447Z,57.90
2018-02-11T04:48:56.327Z,58.20
2018-02-11T04:49:58.139Z,58.50
2018-02-11T04:50:59.203Z,58.50
2018-02-11T04:52:00.290Z,58.60
2018-02-11T04:53:01.359Z,58.60
2018-02-11T04:54:03.171Z,58.30
2018-02-11T04:55:04.251Z,58.20
2018-02-11T04:56:06.054Z,58.50
2018-02-11T04:57:07.134Z,58.50
2018-02-11T04:58:08.964Z,58.60
2018-02-11T04:59:10.076Z,58.70
2018-02-11T05:00:11.136Z,58.30
2018-02-11T05:01:12.194Z,57.90
2018-02-11T05:02:13.281Z,58.00
2018-02-11T05:03:15.118Z,58.10
2018-02-11T05:04:16.175Z,57.90
2018-02-11T05:05:17.994Z,58.00
2018-02-11T05:06:19.063Z,58.00
2018-02-11T05:07:20.883Z,58.60
2018-02-11T05:08:21.943Z,57.80
2018-02-11T05:09:23.759Z,58.00
2018-02-11T05:10:24.823Z,57.90
2018-02-11T05:11:26.642Z,57.90
2018-02-11T05:12:27.707Z,57.90
2018-02-11T05:13:29.518Z,57.80
2018-02-11T05:14:30.587Z,57.70
2018-02-11T05:15:32.382Z,57.20
2018-02-11T05:16:33.466Z,57.20
2018-02-11T05:17:34.511Z,57.60
2018-02-11T05:18:35.591Z,57.70
2018-02-11T05:19:36.642Z,57.00
2018-02-11T05:20:37.706Z,57.00
2018-02-11T05:21:38.807Z,57.10
2018-02-11T05:22:39.914Z,57.30
2018-02-11T05:23:41.003Z,57.20
2018-02-11T05:24:42.074Z,57.30
2018-02-11T05:25:43.159Z,57.20
2018-02-11T05:26:44.971Z,56.80
2018-02-11T05:27:46.052Z,56.80
2018-02-11T05:28:47.135Z,56.50
2018-02-11T05:29:48.203Z,56.20
2018-02-11T05:30:49.998Z,57.60
2018-02-11T05:31:51.079Z,56.80
2018-02-11T05:32:52.141Z,56.80
2018-02-11T05:33:53.228Z,56.70
2018-02-11T05:34:54.282Z,56.40
2018-02-11T05:35:56.086Z,56.20
2018-02-11T05:36:57.138Z,56.20
2018-02-11T05:37:58.207Z,56.50
2018-02-11T05:39:00.029Z,56.90
2018-02-11T05:40:01.855Z,56.70
2018-02-11T05:41:02.936Z,56.70
2018-02-11T05:42:04.751Z,55.90
2018-02-11T05:43:05.863Z,55.90
2018-02-11T05:44:06.931Z,56.10
2018-02-11T05:45:08.775Z,56.00
2018-02-11T05:46:09.875Z,56.00
2018-02-11T05:47:10.937Z,56.00
2018-02-11T05:48:12.010Z,56.20
2018-02-11T05:49:13.098Z,56.50
2018-02-11T05:50:14.197Z,56.20
2018-02-11T05:51:15.275Z,56.00
2018-02-11T05:52:17.094Z,56.00
2018-02-11T05:53:18.153Z,56.00
2018-02-11T05:54:19.238Z,56.00
2018-02-11T05:55:20.317Z,56.30
2018-02-11T05:56:21.386Z,56.30
2018-02-11T05:57:22.435Z,56.10
2018-02-11T05:58:23.499Z,56.20
2018-02-11T05:59:24.575Z,56.30
2018-02-11T06:00:25.634Z,56.10
2018-02-11T06:01:26.704Z,56.10
2018-02-11T06:02:27.820Z,56.00
2018-02-11T06:03:28.907Z,56.00
2018-02-11T06:04:29.986Z,56.10
2018-02-11T06:05:31.071Z,55.90
2018-02-11T06:06:32.156Z,55.90
2018-02-11T06:07:33.214Z,56.00
2018-02-11T06:08:35.031Z,55.90
2018-02-11T06:09:36.116Z,55.90
2018-02-11T06:10:37.191Z,55.30
2018-02-11T06:11:38.271Z,55.50
2018-02-11T06:12:39.371Z,55.50
2018-02-11T06:13:40.435Z,55.50
2018-02-11T06:14:41.535Z,55.80
2018-02-11T06:15:42.600Z,55.70
2018-02-11T06:16:43.670Z,55.60
2018-02-11T06:17:44.743Z,55.50
2018-02-11T06:18:45.822Z,55.50
2018-02-11T06:19:46.910Z,55.50
2018-02-11T06:20:48.723Z,55.70
2018-02-11T06:21:49.796Z,55.70
2018-02-11T06:22:51.619Z,55.60
2018-02-11T06:23:52.700Z,55.60
2018-02-11T06:24:53.778Z,55.70
2018-02-11T06:25:54.850Z,55.60
2018-02-11T06:26:56.668Z,55.60
2018-02-11T06:27:57.731Z,55.60
2018-02-11T06:28:58.843Z,55.70
2018-02-11T06:29:59.900Z,55.70
2018-02-11T06:31:00.986Z,55.70
2018-02-11T06:32:02.073Z,55.50
2018-02-11T06:33:03.159Z,55.50
2018-02-11T06:34:04.283Z,55.80
2018-02-11T06:35:05.359Z,55.60
2018-02-11T06:36:07.213Z,55.10
2018-02-11T06:37:09.007Z,55.50
2018-02-11T06:38:10.063Z,55.40
2018-02-11T06:39:11.157Z,55.80
2018-02-11T06:40:12.299Z,55.50
2018-02-11T06:41:13.416Z,55.40
2018-02-11T06:42:14.522Z,55.70
2018-02-11T06:43:15.595Z,55.60
2018-02-11T06:44:16.696Z,55.50
2018-02-11T06:45:17.791Z,55.50
2018-02-11T06:46:18.860Z,55.60
2018-02-11T06:47:19.919Z,55.50
2018-02-11T06:48:20.998Z,55.50
2018-02-11T06:49:22.063Z,55.60
2018-02-11T06:50:23.129Z,56.50
2018-02-11T06:51:24.183Z,55.60
2018-02-11T06:52:25.243Z,55.20
2018-02-11T06:53:27.058Z,55.50
2018-02-11T06:54:28.147Z,55.50
2018-02-11T06:55:29.211Z,55.50
2018-02-11T06:56:30.271Z,55.50
2018-02-11T06:57:31.371Z,55.30
2018-02-11T06:58:32.437Z,55.40
2018-02-11T06:59:34.275Z,55.30
2018-02-11T07:00:35.365Z,55.30
2018-02-11T07:01:36.431Z,55.10
2018-02-11T07:02:38.260Z,55.20
2018-02-11T07:03:39.331Z,55.20
2018-02-11T07:04:40.429Z,55.10
2018-02-11T07:05:41.474Z,55.10
2018-02-11T07:06:42.527Z,55.20
2018-02-11T07:07:44.323Z,55.10
2018-02-11T07:08:45.406Z,55.10
2018-02-11T07:09:46.487Z,55.10
2018-02-11T07:10:47.555Z,54.90
2018-02-11T07:11:48.634Z,55.20
2018-02-11T07:12:49.710Z,55.90
2018-02-11T07:13:50.763Z,54.90
2018-02-11T07:14:51.835Z,54.80
2018-02-11T07:15:52.891Z,54.90
2018-02-11T07:16:53.990Z,54.90
2018-02-11T07:17:55.056Z,54.90
2018-02-11T07:18:56.124Z,54.90
2018-02-11T07:19:57.943Z,54.90
2018-02-11T07:20:59.004Z,54.70
2018-02-11T07:22:00.083Z,54.80
2018-02-11T07:23:01.143Z,54.80
2018-02-11T07:24:02.228Z,54.90
2018-02-11T07:25:04.054Z,54.60
2018-02-11T07:26:05.270Z,54.50
2018-02-11T07:27:06.338Z,54.70
2018-02-11T07:28:07.409Z,55.10
2018-02-11T07:29:08.479Z,55.00
2018-02-11T07:30:09.551Z,54.70
2018-02-11T07:31:10.618Z,55.10
2018-02-11T07:32:11.695Z,54.70
2018-02-11T07:33:12.767Z,54.50
2018-02-11T07:34:13.823Z,54.70
2018-02-11T07:35:14.887Z,54.90
2018-02-11T07:36:15.949Z,54.50
2018-02-11T07:37:17.040Z,54.50
2018-02-11T07:38:18.855Z,54.50
2018-02-11T07:39:19.921Z,54.50
2018-02-11T07:40:20.986Z,54.50
2018-02-11T07:41:22.067Z,54.50
2018-02-11T07:42:23.144Z,54.50
2018-02-11T07:43:24.223Z,54.50
2018-02-11T07:44:25.284Z,54.50
2018-02-11T07:45:26.346Z,54.50
2018-02-11T07:46:27.423Z,54.50
2018-02-11T07:47:28.509Z,54.50
2018-02-11T07:48:29.595Z,54.70
2018-02-11T07:49:30.675Z,54.80
2018-02-11T07:50:31.758Z,55.20
2018-02-11T07:51:32.838Z,55.20
2018-02-11T07:52:33.922Z,54.70
2018-02-11T07:53:35.019Z,54.40
2018-02-11T07:54:36.079Z,54.60
2018-02-11T07:55:37.147Z,54.90
2018-02-11T07:56:38.222Z,55.10
2018-02-11T07:57:39.296Z,54.60
2018-02-11T07:58:40.376Z,54.80
2018-02-11T07:59:41.438Z,54.90
2018-02-11T08:00:42.578Z,54.70
2018-02-11T08:01:43.656Z,54.90
2018-02-11T08:02:44.738Z,54.70
2018-02-11T08:03:45.801Z,54.80
2018-02-11T08:04:47.619Z,54.80
2018-02-11T08:05:48.704Z,54.70
2018-02-11T08:06:49.786Z,54.70
2018-02-11T08:07:50.843Z,53.90
2018-02-11T08:08:51.897Z,54.00
2018-02-11T08:09:52.992Z,53.90
2018-02-11T08:10:54.088Z,53.80
2018-02-11T08:11:55.146Z,53.70
2018-02-11T08:12:56.223Z,53.90
2018-02-11T08:13:57.286Z,53.40
2018-02-11T08:14:58.395Z,53.50
2018-02-11T08:15:59.455Z,53.70
2018-02-11T08:17:00.506Z,53.80
2018-02-11T08:18:01.603Z,53.90
2018-02-11T08:19:03.418Z,54.30
2018-02-11T08:20:05.215Z,53.80
2018-02-11T08:21:06.313Z,54.00
2018-02-11T08:22:07.422Z,54.00
2018-02-11T08:23:09.295Z,54.00
2018-02-11T08:24:10.414Z,53.90
2018-02-11T08:25:12.115Z,53.70
2018-02-11T08:26:13.199Z,53.10
2018-02-11T08:27:14.998Z,53.20
2018-02-11T08:28:16.058Z,53.20
2018-02-11T08:29:17.132Z,53.30
2018-02-11T08:30:18.203Z,53.40
2018-02-11T08:31:19.307Z,52.70
2018-02-11T08:32:20.380Z,52.80
2018-02-11T08:33:21.466Z,53.10
2018-02-11T08:34:22.539Z,52.60
2018-02-11T08:35:23.619Z,52.10
2018-02-11T08:36:24.710Z,52.70
2018-02-11T08:37:25.785Z,52.80
2018-02-11T08:38:26.839Z,52.90
2018-02-11T08:39:27.899Z,52.90
2018-02-11T08:40:28.967Z,52.80
2018-02-11T08:41:30.803Z,52.30
2018-02-11T08:42:31.885Z,52.30
2018-02-11T08:43:33.695Z,52.30
2018-02-11T08:44:35.503Z,52.50
2018-02-11T08:45:36.597Z,52.50
2018-02-11T08:46:37.683Z,52.50
2018-02-11T08:47:38.755Z,52.00
2018-02-11T08:48:40.575Z,52.00
2018-02-11T08:49:41.640Z,51.90
2018-02-11T08:50:42.698Z,52.20
2018-02-11T08:51:43.774Z,52.40
2018-02-11T08:52:44.838Z,52.50
2018-02-11T08:53:45.922Z,52.40
2018-02-11T08:54:47.036Z,52.20
2018-02-11T08:55:48.871Z,52.40
2018-02-11T08:56:49.943Z,52.40
2018-02-11T08:57:51.023Z,52.10
2018-02-11T08:58:52.098Z,52.20
2018-02-11T08:59:53.155Z,51.90
2018-02-11T09:00:54.972Z,51.80
2018-02-11T09:01:56.043Z,51.80
2018-02-11T09:02:57.124Z,51.50
2018-02-11T09:03:58.187Z,51.70
2018-02-11T09:04:59.239Z,51.60
2018-02-11T09:06:00.295Z,51.60
2018-02-11T09:07:01.379Z,51.70
2018-02-11T09:08:02.437Z,51.60
2018-02-11T09:09:04.258Z,52.10
2018-02-11T09:10:05.311Z,52.00
2018-02-11T09:11:06.408Z,52.20
2018-02-11T09:12:07.477Z,52.00
2018-02-11T09:13:09.283Z,52.00
2018-02-11T09:14:10.343Z,52.10
2018-02-11T09:15:11.454Z,52.00
2018-02-11T09:16:12.518Z,52.00
2018-02-11T09:17:13.582Z,52.10
2018-02-11T09:18:14.667Z,52.40
2018-02-11T09:19:16.502Z,52.50
2018-02-11T09:20:17.572Z,52.50
2018-02-11T09:21:19.378Z,52.90
2018-02-11T09:22:20.452Z,52.90
2018-02-11T09:23:22.252Z,53.20
2018-02-11T09:24:23.531Z,53.10
2018-02-11T09:25:24.591Z,53.90
2018-02-11T09:26:25.658Z,53.20
2018-02-11T09:27:26.730Z,53.40
2018-02-11T09:28:28.544Z,53.50
2018-02-11T09:29:29.623Z,53.60
2018-02-11T09:30:31.447Z,53.50
2018-02-11T09:31:32.515Z,53.50
2018-02-11T09:32:33.608Z,53.50
2018-02-11T09:33:34.680Z,53.50
2018-02-11T09:34:35.771Z,53.80
2018-02-11T09:35:36.826Z,53.70
2018-02-11T09:36:37.902Z,53.90
2018-02-11T09:37:38.986Z,53.90
2018-02-11T09:38:40.795Z,53.90
2018-02-11T09:39:41.869Z,53.80
2018-02-11T09:40:43.666Z,54.10
2018-02-11T09:41:44.747Z,54.10
2018-02-11T09:42:46.593Z,54.20
2018-02-11T09:43:48.394Z,54.40
2018-02-11T09:44:49.446Z,54.30
2018-02-11T09:45:50.507Z,54.30
2018-02-11T09:46:52.307Z,54.50
2018-02-11T09:47:53.396Z,54.40
2018-02-11T09:48:55.195Z,55.00
2018-02-11T09:49:56.255Z,55.00
2018-02-11T09:50:57.307Z,54.80
2018-02-11T09:51:58.369Z,54.90
2018-02-11T09:52:59.439Z,55.00
2018-02-11T09:54:00.503Z,55.00
2018-02-11T09:55:02.319Z,55.10
2018-02-11T09:56:04.165Z,55.00
2018-02-11T09:57:05.231Z,55.00
2018-02-11T09:58:07.075Z,54.90
2018-02-11T09:59:08.144Z,54.90
2018-02-11T10:00:09.220Z,54.80
2018-02-11T10:01:10.292Z,54.90
2018-02-11T10:02:12.128Z,55.20
2018-02-11T10:03:13.214Z,55.30
2018-02-11T10:04:14.283Z,55.30
2018-02-11T10:05:15.349Z,55.40
2018-02-11T10:06:16.427Z,55.60
2018-02-11T10:07:17.503Z,55.50
2018-02-11T10:08:18.579Z,55.70
2018-02-11T10:09:19.652Z,55.90
2018-02-11T10:10:21.485Z,55.80
2018-02-11T10:11:23.300Z,55.90
2018-02-11T10:12:24.350Z,56.00
2018-02-11T10:13:25.419Z,56.10
2018-02-11T10:14:27.215Z,56.40
2018-02-11T10:15:28.263Z,56.40
2018-02-11T10:16:29.335Z,56.40
2018-02-11T10:17:30.428Z,56.60
2018-02-11T10:18:31.512Z,56.70
2018-02-11T10:19:32.583Z,56.80
2018-02-11T10:20:33.703Z,56.70
2018-02-11T10:21:34.754Z,56.80
2018-02-11T10:22:35.844Z,56.90
2018-02-11T10:23:36.922Z,56.90
2018-02-11T10:24:38.058Z,57.10
2018-02-11T10:25:40.189Z,57.20
2018-02-11T10:26:41.436Z,57.50
2018-02-11T10:27:42.518Z,57.50
2018-02-11T10:28:44.341Z,57.70
2018-02-11T10:29:45.407Z,57.70
2018-02-11T10:30:47.203Z,57.80
2018-02-11T10:31:48.794Z,57.80
2018-02-11T10:32:49.878Z,57.90
2018-02-11T10:33:50.963Z,58.10
2018-02-11T10:34:52.091Z,58.20
2018-02-11T10:35:53.145Z,58.40
2018-02-11T10:36:54.216Z,58.80
2018-02-11T10:37:55.280Z,59.00
2018-02-11T10:38:56.359Z,59.10
2018-02-11T10:39:57.451Z,59.50
2018-02-11T10:40:59.159Z,59.30
2018-02-11T10:42:00.855Z,59.30
2018-02-11T10:43:02.436Z,59.20
2018-02-11T10:44:03.500Z,59.10
2018-02-11T10:45:04.555Z,59.10
2018-02-11T10:46:06.359Z,59.10
2018-02-11T10:47:07.447Z,59.00
2018-02-11T10:48:09.176Z,59.40
2018-02-11T10:49:11.030Z,59.60
2018-02-11T10:50:12.143Z,59.60
2018-02-11T10:51:13.198Z,59.70
2018-02-11T10:52:15.011Z,59.80
2018-02-11T10:53:16.071Z,59.80
2018-02-11T10:54:17.903Z,60.40
2018-02-11T10:55:20.086Z,59.80
2018-02-11T10:56:21.175Z,59.80
2018-02-11T10:57:22.282Z,60.50
2018-02-11T10:58:23.391Z,61.40
2018-02-11T10:59:24.451Z,61.70
2018-02-11T11:00:25.516Z,61.90
2018-02-11T11:01:26.609Z,61.90
2018-02-11T11:02:27.696Z,62.20
2018-02-11T11:03:29.524Z,62.20
2018-02-11T11:04:30.615Z,62.20
2018-02-11T11:05:31.684Z,62.50
2018-02-11T11:06:32.751Z,62.60
2018-02-11T11:07:33.814Z,62.70
2018-02-11T11:08:34.858Z,62.90
2018-02-11T11:09:36.671Z,62.70
2018-02-11T11:10:38.483Z,62.80
2018-02-11T11:11:39.711Z,62.70
2018-02-11T11:12:40.776Z,62.70
2018-02-11T11:13:42.592Z,62.90
2018-02-11T11:14:43.679Z,62.90
2018-02-11T11:15:45.380Z,63.00
2018-02-11T11:16:46.511Z,63.00
2018-02-11T11:17:47.582Z,62.90
2018-02-11T11:18:50.410Z,62.70
2018-02-11T11:19:51.557Z,62.50
2018-02-11T11:20:52.627Z,62.70
2018-02-11T11:21:53.700Z,62.60
2018-02-11T11:22:54.766Z,63.00
2018-02-11T11:23:56.762Z,62.90
2018-02-11T11:24:57.829Z,62.90
2018-02-11T11:25:58.920Z,62.90
2018-02-11T11:27:00.033Z,62.60
2018-02-11T11:28:01.831Z,62.60
2018-02-11T11:29:03.061Z,62.60
2018-02-11T11:30:04.194Z,62.70
2018-02-11T11:31:05.273Z,62.90
2018-02-11T11:32:08.916Z,62.50
2018-02-11T11:33:10.884Z,62.50
2018-02-11T11:34:11.952Z,62.50
2018-02-11T11:35:13.815Z,62.60
2018-02-11T11:36:15.643Z,62.80
2018-02-11T11:37:18.130Z,62.70
2018-02-11T11:38:19.395Z,62.60
2018-02-11T11:39:20.475Z,62.60
2018-02-11T11:40:21.543Z,62.80
2018-02-11T11:41:22.606Z,63.20
2018-02-11T11:42:23.959Z,62.90
2018-02-11T11:43:25.049Z,63.10
2018-02-11T11:44:26.116Z,63.30
2018-02-11T11:45:29.395Z,63.30
2018-02-11T11:46:30.503Z,63.50
2018-02-11T11:47:31.603Z,63.60
2018-02-11T11:48:33.418Z,63.40
2018-02-11T11:49:34.519Z,63.40
2018-02-11T11:50:35.611Z,63.90
2018-02-11T11:51:37.282Z,64.10
2018-02-11T11:52:38.342Z,64.50
2018-02-11T11:53:39.447Z,64.50
2018-02-11T11:54:40.492Z,65.20
2018-02-11T11:55:41.587Z,65.30
2018-02-11T11:56:42.650Z,65.50
2018-02-11T11:57:43.718Z,65.10
2018-02-11T11:58:44.832Z,65.70
2018-02-11T11:59:45.950Z,65.80
2018-02-11T12:00:48.071Z,66.20
2018-02-11T12:01:49.888Z,66.20
2018-02-11T12:02:50.947Z,66.20
2018-02-11T12:03:52.007Z,66.50
2018-02-11T12:04:53.075Z,66.40
2018-02-11T12:05:54.143Z,66.20
2018-02-11T12:06:55.228Z,66.10
2018-02-11T12:07:56.287Z,66.30
2018-02-11T12:08:58.327Z,66.20
2018-02-11T12:09:59.422Z,66.30
2018-02-11T12:11:00.494Z,65.80
2018-02-11T12:12:01.596Z,65.90
2018-02-11T12:13:02.663Z,65.90
2018-02-11T12:14:03.718Z,66.10
2018-02-11T12:15:04.801Z,66.00
2018-02-11T12:16:07.375Z,66.00
2018-02-11T12:17:09.456Z,66.10
2018-02-11T12:18:10.570Z,66.20
2018-02-11T12:19:11.666Z,66.10
2018-02-11T12:20:12.739Z,66.20
2018-02-11T12:21:13.848Z,66.40
2018-02-11T12:22:14.923Z,66.40
2018-02-11T12:23:15.979Z,66.30
2018-02-11T12:24:17.067Z,66.20
2018-02-11T12:25:19.166Z,65.90
2018-02-11T12:26:20.251Z,65.80
2018-02-11T12:27:21.311Z,65.80
2018-02-11T12:28:22.508Z,65.60
2018-02-11T12:29:23.563Z,65.80
2018-02-11T12:30:25.450Z,65.90
2018-02-11T12:31:26.577Z,65.70
2018-02-11T12:32:28.011Z,65.50
2018-02-11T12:33:29.086Z,65.40
2018-02-11T12:34:30.177Z,65.40
2018-02-11T12:35:31.252Z,66.20
2018-02-11T12:36:32.347Z,65.60
2018-02-11T12:37:33.419Z,65.40
2018-02-11T12:38:34.822Z,65.50
2018-02-11T12:39:36.634Z,66.10
2018-02-11T12:40:37.782Z,65.40
2018-02-11T12:41:38.864Z,65.40
2018-02-11T12:42:40.689Z,65.10
2018-02-11T12:43:41.811Z,65.00
2018-02-11T12:44:42.867Z,64.70
2018-02-11T12:45:43.986Z,64.70
2018-02-11T12:46:45.054Z,64.70
2018-02-11T12:47:46.122Z,65.00
2018-02-11T12:48:47.212Z,65.00
2018-02-11T12:49:48.301Z,65.20
2018-02-11T12:50:50.155Z,64.80
2018-02-11T12:51:51.263Z,64.80
2018-02-11T12:52:52.431Z,64.80
2018-02-11T12:53:53.511Z,65.00
2018-02-11T12:54:54.595Z,65.00
2018-02-11T12:55:55.703Z,65.00
2018-02-11T12:56:56.810Z,65.40
2018-02-11T12:57:57.942Z,65.40
2018-02-11T12:58:59.743Z,65.30
2018-02-11T13:00:00.811Z,65.30
2018-02-11T13:01:01.883Z,65.50
2018-02-11T13:02:02.951Z,65.20
2018-02-11T13:03:04.756Z,65.00
2018-02-11T13:04:06.846Z,65.00
2018-02-11T13:05:07.943Z,64.90
2018-02-11T13:06:09.014Z,64.90
2018-02-11T13:07:10.107Z,64.90
2018-02-11T13:08:11.183Z,64.90
2018-02-11T13:09:12.971Z,65.00